Time;durP1;ratioP1;P1;durP2;ratioP2;P2;SDS_P1;SDS_P2;PMS_P1;PMS_P2;Temp;Humidity;BMP_temperature;BMP_pressure;BME280_temperature;BME280_humidity;BME280_pressure;Samples;Min_cycle;Max_cycle;Signal;HPM_P1;HPM_P2
2021/01/02 00:02:32;;;;;;;17.30;12.67;;;;;;;;;;5080184;28;20440;-71
2021/01/02 00:05:05;;;;;;;18.60;12.87;;;;;;;;;;5073351;28;20808;-71
2021/01/02 00:07:46;;;;;;;18.73;12.10;;;;;;;;;;5075192;28;21185;-71
2021/01/02 00:10:15;;;;;;;16.17;11.17;;;;;;;;;;5081654;28;21047;-70
2021/01/02 00:13:06;;;;;;;19.27;12.30;;;;;;;;;;5085362;28;20454;-71
2021/01/02 00:15:37;;;;;;;17.73;10.40;;;;;;;;;;5074441;28;20489;-71
2021/01/02 00:18:08;;;;;;;16.83;10.40;;;;;;;;;;5081666;28;20447;-71
2021/01/02 00:20:57;;;;;;;18.90;11.00;;;;;;;;;;5074163;28;21129;-71
2021/01/02 00:23:31;;;;;;;45.10;38.70;;;;;;;;;;5077469;28;20462;-71
2021/01/02 00:25:58;;;;;;;15.67;11.80;;;;;;;;;;5084272;28;20527;-71
2021/01/02 00:28:30;;;;;;;16.50;11.83;;;;;;;;;;5083236;28;20459;-71
2021/01/02 00:31:18;;;;;;;18.73;11.77;;;;;;;;;;5080466;28;20529;-71
2021/01/02 00:34:04;;;;;;;17.40;11.77;;;;;;;;;;5084104;28;20456;-71
2021/01/02 00:36:33;;;;;;;21.37;12.43;;;;;;;;;;5077730;28;20882;-71
2021/01/02 00:39:00;;;;;;;20.27;12.23;;;;;;;;;;5083288;28;20489;-71
2021/01/02 00:41:28;;;;;;;26.80;18.93;;;;;;;;;;5082758;28;20453;-70
2021/01/02 00:43:55;;;;;;;16.57;10.70;;;;;;;;;;5098580;28;20968;-71
2021/01/02 00:46:22;;;;;;;17.70;11.10;;;;;;;;;;5087513;28;20486;-71
2021/01/02 00:48:49;;;;;;;20.97;13.30;;;;;;;;;;5082539;28;20677;-71
2021/01/02 00:51:17;;;;;;;41.73;36.93;;;;;;;;;;5081320;28;21015;-71
2021/01/02 00:53:49;;;;;;;21.77;13.00;;;;;;;;;;5093343;28;20440;-71
2021/01/02 00:56:36;;;;;;;16.40;11.17;;;;;;;;;;5080678;28;20571;-71
2021/01/02 00:59:28;;;;;;;17.53;11.70;;;;;;;;;;5086290;28;20447;-71
2021/01/02 01:02:03;;;;;;;18.53;11.70;;;;;;;;;;5076932;28;20465;-70
2021/01/02 01:04:44;;;;;;;17.23;11.43;;;;;;;;;;5095304;28;20446;-71
2021/01/02 01:07:17;;;;;;;19.27;10.33;;;;;;;;;;5082681;28;20469;-70
2021/01/02 01:09:47;;;;;;;16.90;12.07;;;;;;;;;;5093091;28;20486;-71
2021/01/02 01:12:17;;;;;;;18.10;11.13;;;;;;;;;;5086870;28;20449;-71
2021/01/02 01:14:45;;;;;;;16.33;11.47;;;;;;;;;;5082944;28;20461;-71
2021/01/02 01:17:14;;;;;;;18.50;11.77;;;;;;;;;;5086305;28;20472;-71
2021/01/02 01:19:43;;;;;;;19.23;12.47;;;;;;;;;;5084001;28;20460;-70
2021/01/02 01:22:11;;;;;;;19.70;11.50;;;;;;;;;;5076108;28;20456;-71
2021/01/02 01:24:43;;;;;;;20.10;13.23;;;;;;;;;;5081897;28;20978;-71
2021/01/02 01:27:15;;;;;;;20.40;11.77;;;;;;;;;;5086178;28;20468;-71
2021/01/02 01:29:43;;;;;;;27.90;13.47;;;;;;;;;;5086531;28;20473;-71
2021/01/02 01:32:10;;;;;;;20.33;13.77;;;;;;;;;;5087339;28;20452;-71
2021/01/02 01:34:38;;;;;;;16.83;9.50;;;;;;;;;;5096000;28;20463;-71
2021/01/02 01:37:06;;;;;;;18.77;11.40;;;;;;;;;;5093812;28;20474;-71
2021/01/02 01:39:33;;;;;;;15.90;10.53;;;;;;;;;;5088956;28;20499;-70
2021/01/02 01:42:00;;;;;;;16.27;10.27;;;;;;;;;;5087889;28;20536;-71
2021/01/02 01:44:39;;;;;;;21.70;16.73;;;;;;;;;;5089903;28;20847;-71
2021/01/02 01:47:12;;;;;;;19.07;10.60;;;;;;;;;;5093279;28;20467;-71
2021/01/02 01:50:12;;;;;;;18.30;10.50;;;;;;;;;;5089127;28;20563;-71
2021/01/02 01:52:42;;;;;;;17.70;12.30;;;;;;;;;;5085383;28;20449;-71
2021/01/02 01:55:09;;;;;;;25.77;22.60;;;;;;;;;;5099677;28;20521;-70
2021/01/02 01:57:38;;;;;;;19.60;12.60;;;;;;;;;;5095801;28;20471;-71
2021/01/02 02:00:11;;;;;;;18.93;12.03;;;;;;;;;;5084580;28;20485;-70
2021/01/02 02:03:08;;;;;;;17.80;10.30;;;;;;;;;;5084234;28;20828;-71
2021/01/02 02:05:50;;;;;;;14.67;10.90;;;;;;;;;;5050259;28;20467;-71
2021/01/02 02:08:17;;;;;;;17.50;10.20;;;;;;;;;;5074006;28;20535;-71
2021/01/02 02:10:46;;;;;;;16.80;11.50;;;;;;;;;;5092882;28;20472;-70
2021/01/02 02:13:14;;;;;;;17.40;11.10;;;;;;;;;;5086356;28;20444;-70
2021/01/02 02:15:47;;;;;;;16.60;10.77;;;;;;;;;;5084134;28;20469;-71
2021/01/02 02:18:16;;;;;;;23.77;18.40;;;;;;;;;;5086598;28;20935;-71
2021/01/02 02:20:46;;;;;;;23.53;16.83;;;;;;;;;;5093594;28;20475;-70
2021/01/02 02:23:14;;;;;;;20.77;14.37;;;;;;;;;;5083233;28;20456;-72
2021/01/02 02:25:48;;;;;;;28.03;21.93;;;;;;;;;;5085562;28;20506;-71
2021/01/02 02:28:25;;;;;;;14.40;10.17;;;;;;;;;;5081489;28;20493;-70
2021/01/02 02:30:56;;;;;;;17.50;10.53;;;;;;;;;;5082678;28;20475;-71
2021/01/02 02:33:25;;;;;;;18.53;10.87;;;;;;;;;;5079797;28;20449;-71
2021/01/02 02:38:12;;;;;;;25.50;19.90;;;;;;;;;;5105860;27;20529;-68
2021/01/02 02:40:39;;;;;;;34.87;25.03;;;;;;;;;;5086268;28;20467;-68
2021/01/02 02:43:06;;;;;;;19.87;10.77;;;;;;;;;;5083386;28;20504;-68
2021/01/02 02:45:33;;;;;;;21.73;11.50;;;;;;;;;;5088060;28;20456;-68
2021/01/02 02:48:03;;;;;;;18.20;11.20;;;;;;;;;;5087169;28;20480;-68
2021/01/02 02:50:32;;;;;;;19.10;11.37;;;;;;;;;;5092008;28;20449;-68
2021/01/02 02:53:04;;;;;;;16.03;10.63;;;;;;;;;;5081412;28;20498;-68
2021/01/02 02:55:32;;;;;;;15.07;10.33;;;;;;;;;;5074287;28;20521;-71
2021/01/02 02:58:01;;;;;;;19.47;10.20;;;;;;;;;;5082685;28;20451;-71
2021/01/02 03:00:27;;;;;;;18.00;11.03;;;;;;;;;;5088592;28;20455;-70
2021/01/02 03:02:54;;;;;;;21.77;11.53;;;;;;;;;;5089717;28;20451;-71
2021/01/02 03:05:20;;;;;;;17.60;10.57;;;;;;;;;;5099327;28;20444;-70
2021/01/02 03:07:48;;;;;;;23.80;12.67;;;;;;;;;;5089298;28;20485;-70
2021/01/02 03:10:15;;;;;;;17.27;9.47;;;;;;;;;;5095061;28;20460;-71
2021/01/02 03:12:43;;;;;;;15.27;10.27;;;;;;;;;;5081573;28;20828;-70
2021/01/02 03:15:11;;;;;;;14.27;9.57;;;;;;;;;;5077777;28;20452;-70
2021/01/02 03:17:39;;;;;;;16.20;11.13;;;;;;;;;;5086494;28;20521;-71
2021/01/02 03:20:06;;;;;;;19.70;10.47;;;;;;;;;;5079780;28;20963;-70
2021/01/02 03:22:32;;;;;;;20.33;11.90;;;;;;;;;;5085591;28;20460;-70
2021/01/02 03:24:59;;;;;;;31.20;19.80;;;;;;;;;;5079276;28;20467;-71
2021/01/02 03:27:26;;;;;;;18.50;11.77;;;;;;;;;;5085112;28;20884;-70
2021/01/02 03:29:53;;;;;;;16.13;10.03;;;;;;;;;;5084239;28;20467;-70
2021/01/02 03:32:20;;;;;;;31.70;26.73;;;;;;;;;;5088929;28;20464;-70
2021/01/02 03:34:46;;;;;;;18.33;11.07;;;;;;;;;;5089163;28;20460;-70
2021/01/02 03:37:13;;;;;;;26.63;19.20;;;;;;;;;;5086536;28;20473;-70
2021/01/02 03:39:39;;;;;;;20.47;12.47;;;;;;;;;;5079193;28;20468;-71
2021/01/02 03:42:08;;;;;;;15.77;10.20;;;;;;;;;;5083493;28;20851;-70
2021/01/02 03:44:34;;;;;;;16.97;9.37;;;;;;;;;;5093374;28;20461;-71
2021/01/02 03:47:06;;;;;;;18.97;12.20;;;;;;;;;;5102696;28;20506;-70
2021/01/02 03:49:33;;;;;;;19.40;11.67;;;;;;;;;;5062720;28;20964;-71
2021/01/02 03:52:02;;;;;;;14.90;10.40;;;;;;;;;;5066875;28;20830;-70
2021/01/02 03:54:28;;;;;;;16.20;11.40;;;;;;;;;;5087381;28;20448;-70
2021/01/02 03:56:55;;;;;;;20.00;11.37;;;;;;;;;;5086664;28;21028;-70
2021/01/02 03:59:21;;;;;;;21.03;12.47;;;;;;;;;;5072619;28;20460;-70
2021/01/02 04:01:52;;;;;;;16.60;11.50;;;;;;;;;;5072017;28;20469;-71
2021/01/02 04:04:19;;;;;;;16.47;11.90;;;;;;;;;;5075438;28;20462;-71
2021/01/02 04:06:46;;;;;;;15.93;11.20;;;;;;;;;;5072460;28;21270;-71
2021/01/02 04:09:13;;;;;;;17.70;11.13;;;;;;;;;;5068694;28;20461;-71
2021/01/02 04:11:40;;;;;;;17.60;11.50;;;;;;;;;;5078678;28;20448;-71
2021/01/02 04:14:07;;;;;;;17.80;12.00;;;;;;;;;;5076885;28;20468;-70
2021/01/02 04:16:33;;;;;;;20.27;11.27;;;;;;;;;;5083610;28;20464;-71
2021/01/02 04:19:00;;;;;;;17.40;11.13;;;;;;;;;;5077117;28;20444;-71
2021/01/02 04:21:27;;;;;;;17.07;10.43;;;;;;;;;;5083263;28;20449;-71
2021/01/02 04:23:54;;;;;;;13.60;9.30;;;;;;;;;;5070011;28;20456;-71
2021/01/02 04:26:21;;;;;;;16.80;10.60;;;;;;;;;;5060014;28;20494;-70
2021/01/02 04:28:47;;;;;;;18.23;11.90;;;;;;;;;;5070829;28;20524;-70
2021/01/02 04:31:14;;;;;;;18.33;9.17;;;;;;;;;;5071936;28;20458;-70
2021/01/02 04:33:41;;;;;;;15.70;9.43;;;;;;;;;;5081918;28;20544;-70
2021/01/02 04:36:07;;;;;;;15.83;9.63;;;;;;;;;;5065735;28;20485;-70
2021/01/02 04:38:35;;;;;;;13.50;8.93;;;;;;;;;;5072182;28;20972;-70
2021/01/02 04:41:01;;;;;;;18.00;10.53;;;;;;;;;;5072873;28;20550;-70
2021/01/02 04:43:28;;;;;;;26.73;23.50;;;;;;;;;;5070490;28;20458;-70
2021/01/02 04:45:55;;;;;;;14.33;8.37;;;;;;;;;;5070700;28;20469;-70
2021/01/02 04:48:21;;;;;;;14.90;10.43;;;;;;;;;;5074937;28;20448;-71
2021/01/02 04:50:48;;;;;;;16.97;9.77;;;;;;;;;;5080400;28;20809;-71
2021/01/02 04:53:14;;;;;;;15.60;9.00;;;;;;;;;;5071614;28;20457;-70
2021/01/02 04:55:45;;;;;;;15.07;9.27;;;;;;;;;;5073182;28;20456;-71
2021/01/02 04:58:13;;;;;;;13.67;8.80;;;;;;;;;;5072971;28;20450;-70
2021/01/02 05:00:40;;;;;;;15.37;10.37;;;;;;;;;;5068684;28;20468;-70
2021/01/02 05:03:07;;;;;;;13.87;9.30;;;;;;;;;;5069178;28;20889;-71
2021/01/02 05:05:34;;;;;;;13.37;9.43;;;;;;;;;;5064412;28;20498;-71
2021/01/02 05:08:00;;;;;;;12.90;8.53;;;;;;;;;;5071368;28;20490;-70
2021/01/02 05:10:27;;;;;;;17.70;10.50;;;;;;;;;;5067679;28;20461;-71
2021/01/02 05:13:06;;;;;;;14.43;9.80;;;;;;;;;;5076499;28;20883;-70
2021/01/02 05:15:33;;;;;;;14.73;10.07;;;;;;;;;;5073781;28;20453;-70
2021/01/02 05:18:01;;;;;;;17.43;9.83;;;;;;;;;;5074898;28;20821;-71
2021/01/02 05:20:27;;;;;;;15.60;10.00;;;;;;;;;;5065218;28;20825;-71
2021/01/02 05:22:54;;;;;;;13.83;9.70;;;;;;;;;;5063701;28;20741;-71
2021/01/02 05:25:21;;;;;;;14.40;9.47;;;;;;;;;;5068286;28;20483;-71
2021/01/02 05:27:49;;;;;;;12.87;8.00;;;;;;;;;;5073444;28;20603;-71
2021/01/02 05:30:20;;;;;;;14.97;9.80;;;;;;;;;;5067237;28;20453;-70
2021/01/02 05:32:57;;;;;;;14.77;8.73;;;;;;;;;;5067716;28;20540;-70
2021/01/02 05:35:24;;;;;;;16.47;10.63;;;;;;;;;;5060163;28;20887;-71
2021/01/02 05:37:50;;;;;;;10.87;7.67;;;;;;;;;;5077383;28;20464;-70
2021/01/02 05:40:32;;;;;;;12.30;8.47;;;;;;;;;;5068252;28;20972;-71
2021/01/02 05:42:58;;;;;;;12.53;8.10;;;;;;;;;;5077466;28;20448;-71
2021/01/02 05:45:27;;;;;;;18.13;9.20;;;;;;;;;;5064004;28;20512;-71
2021/01/02 05:47:56;;;;;;;12.57;7.97;;;;;;;;;;5070562;28;20481;-70
2021/01/02 05:50:23;;;;;;;14.40;9.70;;;;;;;;;;5064876;28;20831;-71
2021/01/02 05:52:50;;;;;;;15.83;10.00;;;;;;;;;;5060069;28;20449;-70
2021/01/02 05:55:28;;;;;;;15.73;9.53;;;;;;;;;;5073877;28;20453;-70
2021/01/02 05:57:55;;;;;;;13.23;9.57;;;;;;;;;;5070726;28;20537;-71
2021/01/02 06:00:22;;;;;;;12.40;8.40;;;;;;;;;;5068882;28;20969;-70
2021/01/02 06:02:49;;;;;;;13.80;8.77;;;;;;;;;;5065746;28;20464;-71
2021/01/02 06:05:16;;;;;;;15.50;8.93;;;;;;;;;;5065253;28;20476;-70
2021/01/02 06:07:49;;;;;;;15.00;9.17;;;;;;;;;;5066974;28;20485;-71
2021/01/02 06:10:16;;;;;;;13.93;9.43;;;;;;;;;;5069082;28;20823;-71
2021/01/02 06:12:43;;;;;;;16.60;9.53;;;;;;;;;;5075853;28;20468;-71
2021/01/02 06:15:11;;;;;;;13.70;9.30;;;;;;;;;;5059059;28;20552;-70
2021/01/02 06:17:38;;;;;;;17.20;9.20;;;;;;;;;;5060045;28;20468;-70
2021/01/02 06:20:07;;;;;;;12.27;9.00;;;;;;;;;;5056678;28;20449;-70
2021/01/02 06:22:35;;;;;;;13.77;9.03;;;;;;;;;;5062870;28;20469;-71
2021/01/02 06:25:02;;;;;;;15.77;9.23;;;;;;;;;;5076991;28;20804;-71
2021/01/02 06:27:29;;;;;;;13.47;8.10;;;;;;;;;;5069759;28;20488;-71
2021/01/02 06:29:56;;;;;;;13.20;8.10;;;;;;;;;;5058735;28;20489;-71
2021/01/02 06:32:23;;;;;;;14.40;9.20;;;;;;;;;;5071617;28;20445;-71
2021/01/02 06:35:08;;;;;;;13.17;9.30;;;;;;;;;;5067346;28;20465;-70
2021/01/02 06:37:50;;;;;;;11.03;7.77;;;;;;;;;;5069222;28;20862;-71
2021/01/02 06:40:21;;;;;;;12.47;8.13;;;;;;;;;;5083447;28;20523;-70
2021/01/02 06:42:52;;;;;;;12.67;8.63;;;;;;;;;;5068176;28;20490;-70
2021/01/02 06:45:43;;;;;;;14.70;9.60;;;;;;;;;;5071594;28;20444;-71
2021/01/02 06:48:24;;;;;;;13.50;9.30;;;;;;;;;;5068350;28;20481;-70
2021/01/02 06:50:52;;;;;;;16.70;9.63;;;;;;;;;;5069177;28;22614;-71
2021/01/02 06:53:18;;;;;;;13.27;8.57;;;;;;;;;;5067312;28;20969;-70
2021/01/02 06:55:46;;;;;;;11.50;7.10;;;;;;;;;;5078788;28;20458;-71
2021/01/02 06:58:16;;;;;;;13.00;9.17;;;;;;;;;;5072354;28;21034;-70
2021/01/02 07:00:43;;;;;;;13.53;8.37;;;;;;;;;;5073329;28;20471;-71
2021/01/02 07:03:10;;;;;;;16.00;9.00;;;;;;;;;;5065522;28;20561;-70
2021/01/02 07:05:43;;;;;;;13.33;7.40;;;;;;;;;;5069776;28;20473;-70
2021/01/02 07:08:28;;;;;;;14.03;8.53;;;;;;;;;;5071807;28;21155;-70
2021/01/02 07:11:10;;;;;;;11.63;7.63;;;;;;;;;;5066504;28;20461;-71
2021/01/02 07:13:37;;;;;;;12.10;6.90;;;;;;;;;;5067952;28;20449;-72
2021/01/02 07:16:28;;;;;;;16.17;10.33;;;;;;;;;;5081508;28;20460;-70
2021/01/02 07:18:55;;;;;;;12.70;8.40;;;;;;;;;;5080796;28;20437;-71
2021/01/02 07:21:34;;;;;;;12.57;7.90;;;;;;;;;;5069616;28;20456;-70
2021/01/02 07:24:19;;;;;;;12.77;7.87;;;;;;;;;;5065391;28;20460;-70
2021/01/02 07:26:46;;;;;;;11.63;8.97;;;;;;;;;;5070188;28;21007;-71
2021/01/02 07:29:18;;;;;;;13.43;8.80;;;;;;;;;;5067315;28;20460;-71
2021/01/02 07:31:45;;;;;;;13.10;7.43;;;;;;;;;;5070353;28;20448;-71
2021/01/02 07:34:21;;;;;;;11.30;7.20;;;;;;;;;;5079216;28;20458;-71
2021/01/02 07:36:48;;;;;;;12.93;7.80;;;;;;;;;;5073505;28;20467;-71
2021/01/02 07:39:15;;;;;;;13.27;8.93;;;;;;;;;;5070802;28;20467;-71
2021/01/02 07:41:42;;;;;;;11.73;7.23;;;;;;;;;;5069905;28;20456;-71
2021/01/02 07:44:09;;;;;;;9.53;7.07;;;;;;;;;;5077525;28;20453;-69
2021/01/02 07:46:41;;;;;;;9.70;7.27;;;;;;;;;;5075250;28;20484;-69
2021/01/02 07:49:08;;;;;;;11.80;7.70;;;;;;;;;;5074810;28;20448;-69
2021/01/02 07:51:35;;;;;;;12.27;7.83;;;;;;;;;;5077682;28;20441;-69
2021/01/02 07:54:01;;;;;;;11.27;7.30;;;;;;;;;;5071922;28;20460;-69
2021/01/02 07:56:35;;;;;;;11.07;7.60;;;;;;;;;;5071856;28;20472;-69
2021/01/02 07:59:20;;;;;;;9.00;7.17;;;;;;;;;;5071653;28;20470;-69
2021/01/02 08:01:51;;;;;;;11.40;8.90;;;;;;;;;;5073162;28;20509;-69
2021/01/02 08:04:18;;;;;;;10.73;7.30;;;;;;;;;;5063519;28;20441;-70
2021/01/02 08:06:45;;;;;;;11.77;7.70;;;;;;;;;;5077498;28;20477;-70
2021/01/02 08:09:12;;;;;;;11.50;8.30;;;;;;;;;;5071398;28;20467;-70
2021/01/02 08:11:39;;;;;;;11.07;9.00;;;;;;;;;;5076180;28;20449;-70
2021/01/02 08:14:06;;;;;;;14.87;10.00;;;;;;;;;;5073796;28;20460;-69
2021/01/02 08:16:32;;;;;;;10.83;7.20;;;;;;;;;;5064328;28;20474;-69
2021/01/02 08:19:06;;;;;;;14.00;8.47;;;;;;;;;;5065096;28;20449;-69
2021/01/02 08:21:38;;;;;;;11.80;6.80;;;;;;;;;;5066621;28;20457;-68
2021/01/02 08:24:05;;;;;;;11.30;7.53;;;;;;;;;;5062346;28;20449;-69
2021/01/02 08:26:32;;;;;;;12.73;9.00;;;;;;;;;;5060715;28;20481;-69
2021/01/02 08:28:59;;;;;;;10.30;7.97;;;;;;;;;;5061650;28;20963;-69
2021/01/02 08:31:27;;;;;;;12.10;7.10;;;;;;;;;;5063772;28;20465;-70
2021/01/02 08:33:54;;;;;;;11.87;8.30;;;;;;;;;;5066385;28;20460;-69
2021/01/02 08:36:21;;;;;;;12.10;8.20;;;;;;;;;;5062449;28;20480;-69
2021/01/02 08:38:55;;;;;;;9.63;7.30;;;;;;;;;;5065107;28;20451;-69
2021/01/02 08:41:22;;;;;;;12.30;7.30;;;;;;;;;;5067689;28;20442;-69
2021/01/02 08:43:49;;;;;;;9.50;6.70;;;;;;;;;;5062296;28;20457;-70
2021/01/02 08:46:22;;;;;;;10.10;7.57;;;;;;;;;;5064422;28;20465;-69
2021/01/02 08:48:48;;;;;;;12.87;7.80;;;;;;;;;;5065231;28;20457;-68
2021/01/02 08:51:22;;;;;;;11.53;7.70;;;;;;;;;;5061943;28;20471;-70
2021/01/02 08:53:49;;;;;;;9.50;7.00;;;;;;;;;;5059712;28;20457;-70
2021/01/02 08:56:21;;;;;;;11.33;7.53;;;;;;;;;;5060421;28;21573;-69
2021/01/02 08:58:47;;;;;;;10.97;8.00;;;;;;;;;;5062837;28;20453;-69
2021/01/02 09:01:14;;;;;;;12.77;7.57;;;;;;;;;;5059376;28;20465;-69
2021/01/02 09:03:40;;;;;;;12.40;6.90;;;;;;;;;;5059473;28;20461;-69
2021/01/02 09:06:17;;;;;;;11.00;7.30;;;;;;;;;;5061469;28;20474;-70
2021/01/02 09:08:45;;;;;;;10.60;7.20;;;;;;;;;;5058883;28;20537;-69
2021/01/02 09:11:11;;;;;;;12.33;8.07;;;;;;;;;;5058144;28;20458;-69
2021/01/02 09:13:38;;;;;;;12.50;8.40;;;;;;;;;;5058528;28;20809;-69
2021/01/02 09:16:05;;;;;;;11.33;8.40;;;;;;;;;;5062895;28;20546;-69
2021/01/02 09:18:42;;;;;;;12.83;9.00;;;;;;;;;;5069253;28;20480;-69
2021/01/02 09:21:19;;;;;;;10.30;7.40;;;;;;;;;;5068727;28;20467;-70
2021/01/02 09:23:46;;;;;;;13.30;8.53;;;;;;;;;;5070579;28;20448;-70
2021/01/02 09:26:25;;;;;;;8.97;7.93;;;;;;;;;;5079385;28;20465;-70
2021/01/02 09:28:52;;;;;;;11.40;8.47;;;;;;;;;;5075540;28;20448;-69
2021/01/02 09:31:19;;;;;;;9.70;7.33;;;;;;;;;;5066933;28;20452;-70
2021/01/02 09:33:45;;;;;;;10.77;7.70;;;;;;;;;;5054286;28;20448;-69
2021/01/02 09:36:13;;;;;;;9.87;7.60;;;;;;;;;;5061780;28;20485;-69
2021/01/02 09:38:40;;;;;;;13.23;8.07;;;;;;;;;;5063104;28;21938;-69
2021/01/02 09:41:07;;;;;;;12.90;8.00;;;;;;;;;;5064698;28;20467;-69
2021/01/02 09:43:34;;;;;;;10.93;7.70;;;;;;;;;;5067272;28;20510;-70
2021/01/02 09:46:00;;;;;;;13.73;9.13;;;;;;;;;;5067017;28;20477;-69
2021/01/02 09:48:27;;;;;;;11.83;7.43;;;;;;;;;;5062568;28;20481;-70
2021/01/02 09:50:54;;;;;;;18.07;9.10;;;;;;;;;;5061009;28;21181;-69
2021/01/02 09:53:20;;;;;;;11.67;7.30;;;;;;;;;;5061230;28;20459;-69
2021/01/02 09:55:47;;;;;;;14.20;8.87;;;;;;;;;;5057445;28;21097;-69
2021/01/02 09:58:14;;;;;;;12.33;9.23;;;;;;;;;;5062648;28;20457;-70
2021/01/02 10:00:41;;;;;;;11.90;8.30;;;;;;;;;;5059199;28;20503;-70
2021/01/02 10:03:08;;;;;;;11.00;8.50;;;;;;;;;;5059317;28;20453;-69
2021/01/02 10:05:35;;;;;;;13.57;8.00;;;;;;;;;;5061474;28;20464;-71
2021/01/02 10:08:02;;;;;;;12.37;8.47;;;;;;;;;;5057418;28;20616;-69
2021/01/02 10:10:28;;;;;;;11.67;8.43;;;;;;;;;;5059013;28;21044;-69
2021/01/02 10:12:55;;;;;;;9.77;7.70;;;;;;;;;;5060315;28;20464;-70
2021/01/02 10:15:23;;;;;;;10.60;8.40;;;;;;;;;;5059803;28;20453;-70
2021/01/02 10:17:49;;;;;;;13.17;8.67;;;;;;;;;;5058062;28;20514;-70
2021/01/02 10:20:16;;;;;;;12.30;7.60;;;;;;;;;;5059514;28;20461;-70
2021/01/02 10:22:43;;;;;;;12.57;7.10;;;;;;;;;;5061726;28;20457;-70
2021/01/02 10:25:10;;;;;;;74.87;64.93;;;;;;;;;;5058612;28;20457;-69
2021/01/02 10:27:37;;;;;;;26.13;20.27;;;;;;;;;;5059075;28;20481;-69
2021/01/02 10:30:05;;;;;;;10.90;7.00;;;;;;;;;;5058677;28;20457;-69
2021/01/02 10:32:32;;;;;;;15.80;8.27;;;;;;;;;;5060930;28;20487;-69
2021/01/02 10:34:59;;;;;;;14.30;8.37;;;;;;;;;;5058895;28;20467;-69
2021/01/02 10:37:26;;;;;;;16.20;8.60;;;;;;;;;;5056794;28;20865;-70
2021/01/02 10:39:53;;;;;;;11.63;7.17;;;;;;;;;;5059721;28;20457;-70
2021/01/02 10:42:22;;;;;;;10.70;6.90;;;;;;;;;;5061615;28;20461;-70
2021/01/02 10:44:48;;;;;;;9.33;6.70;;;;;;;;;;5058164;28;20453;-69
2021/01/02 10:47:18;;;;;;;23.87;18.20;;;;;;;;;;5060729;28;20477;-69
2021/01/02 10:49:45;;;;;;;12.37;7.40;;;;;;;;;;5057089;28;20965;-72
2021/01/02 10:52:12;;;;;;;12.60;7.00;;;;;;;;;;5054788;28;20462;-70
2021/01/02 10:54:38;;;;;;;13.97;9.63;;;;;;;;;;5056280;28;20461;-70
2021/01/02 10:57:05;;;;;;;9.80;7.37;;;;;;;;;;5056705;28;20481;-70
2021/01/02 10:59:32;;;;;;;35.47;28.07;;;;;;;;;;5065728;28;20453;-69
2021/01/02 11:01:58;;;;;;;13.67;7.53;;;;;;;;;;5069094;28;20464;-69
2021/01/02 11:04:27;;;;;;;12.40;7.50;;;;;;;;;;5078071;28;20462;-69
2021/01/02 11:06:55;;;;;;;14.63;8.37;;;;;;;;;;5071270;28;20484;-69
2021/01/02 11:09:22;;;;;;;11.27;7.10;;;;;;;;;;5062501;28;20456;-69
2021/01/02 11:11:50;;;;;;;9.93;7.20;;;;;;;;;;5061874;28;20457;-69
2021/01/02 11:14:17;;;;;;;11.10;6.73;;;;;;;;;;5059016;28;20464;-69
2021/01/02 11:16:45;;;;;;;13.67;7.60;;;;;;;;;;5064253;28;20537;-69
2021/01/02 11:19:12;;;;;;;13.07;7.97;;;;;;;;;;5066824;28;20571;-71
2021/01/02 11:21:39;;;;;;;13.47;8.40;;;;;;;;;;5061507;28;20472;-71
2021/01/02 11:24:07;;;;;;;12.47;7.37;;;;;;;;;;5062421;28;20464;-69
2021/01/02 11:26:34;;;;;;;14.47;8.63;;;;;;;;;;5064277;28;20476;-70
2021/01/02 11:29:00;;;;;;;12.83;8.87;;;;;;;;;;5059987;28;20457;-69
2021/01/02 11:31:30;;;;;;;11.00;8.00;;;;;;;;;;5060804;28;20463;-69
2021/01/02 11:33:56;;;;;;;12.40;7.67;;;;;;;;;;5060821;28;20458;-69
2021/01/02 11:36:23;;;;;;;12.00;8.00;;;;;;;;;;5061714;28;20785;-69
2021/01/02 11:38:50;;;;;;;9.00;6.03;;;;;;;;;;5061347;28;21012;-70
2021/01/02 11:41:18;;;;;;;11.90;7.93;;;;;;;;;;5061917;28;20457;-69
2021/01/02 11:43:45;;;;;;;12.07;7.33;;;;;;;;;;5061866;28;20467;-69
2021/01/02 11:46:12;;;;;;;10.90;6.50;;;;;;;;;;5063653;28;20476;-69
2021/01/02 11:48:40;;;;;;;8.80;6.40;;;;;;;;;;5062621;28;20480;-69
2021/01/02 11:51:12;;;;;;;11.63;7.97;;;;;;;;;;5063824;28;20465;-68
2021/01/02 11:53:38;;;;;;;11.93;7.10;;;;;;;;;;5070320;28;20449;-69
2021/01/02 11:56:05;;;;;;;13.70;7.87;;;;;;;;;;5065982;28;20480;-70
2021/01/02 11:58:33;;;;;;;13.43;8.47;;;;;;;;;;5066703;28;20456;-69
2021/01/02 12:00:59;;;;;;;9.03;6.53;;;;;;;;;;5068804;28;20468;-70
2021/01/02 12:03:26;;;;;;;11.20;7.00;;;;;;;;;;5065168;28;20840;-69
2021/01/02 12:05:53;;;;;;;8.57;6.53;;;;;;;;;;5061263;28;20476;-70
2021/01/02 12:08:19;;;;;;;10.50;8.07;;;;;;;;;;5068146;28;20492;-70
2021/01/02 12:10:46;;;;;;;11.20;6.67;;;;;;;;;;5060416;28;20957;-70
2021/01/02 12:13:13;;;;;;;19.17;5.40;;;;;;;;;;5057622;28;21016;-69
2021/01/02 12:15:40;;;;;;;12.13;7.73;;;;;;;;;;5063014;28;20460;-70
2021/01/02 12:18:07;;;;;;;14.80;7.37;;;;;;;;;;5060811;28;20449;-69
2021/01/02 12:20:33;;;;;;;8.97;5.50;;;;;;;;;;5061916;28;20464;-70
2021/01/02 12:23:00;;;;;;;10.23;7.10;;;;;;;;;;5066403;28;20465;-68
2021/01/02 12:25:26;;;;;;;14.40;8.77;;;;;;;;;;5065031;28;20471;-70
2021/01/02 12:27:55;;;;;;;11.07;7.03;;;;;;;;;;5066181;28;20956;-69
2021/01/02 12:30:22;;;;;;;17.03;9.97;;;;;;;;;;5062115;28;20477;-69
2021/01/02 12:32:50;;;;;;;14.43;8.80;;;;;;;;;;5065855;28;20847;-69
2021/01/02 12:35:16;;;;;;;12.97;8.13;;;;;;;;;;5066358;28;20479;-69
2021/01/02 12:37:43;;;;;;;11.17;7.53;;;;;;;;;;5065445;28;20835;-69
2021/01/02 12:40:10;;;;;;;18.47;9.60;;;;;;;;;;5065603;28;20472;-68
2021/01/02 12:42:40;;;;;;;14.40;8.90;;;;;;;;;;5063497;28;20474;-69
2021/01/02 12:45:08;;;;;;;13.00;8.40;;;;;;;;;;5065202;28;20468;-69
2021/01/02 12:47:34;;;;;;;12.33;6.90;;;;;;;;;;5065305;28;20850;-69
2021/01/02 12:50:02;;;;;;;16.13;9.00;;;;;;;;;;5062129;28;20477;-69
2021/01/02 12:52:29;;;;;;;13.87;7.87;;;;;;;;;;5059672;28;20453;-70
2021/01/02 12:54:56;;;;;;;15.87;9.70;;;;;;;;;;5061993;28;20579;-69
2021/01/02 12:57:22;;;;;;;14.87;10.83;;;;;;;;;;5064345;28;20465;-69
2021/01/02 12:59:52;;;;;;;12.57;8.30;;;;;;;;;;5062684;28;20452;-70
2021/01/02 13:02:19;;;;;;;15.70;9.70;;;;;;;;;;5064342;28;20467;-70
2021/01/02 13:04:46;;;;;;;16.57;10.50;;;;;;;;;;5067081;28;20461;-69
2021/01/02 13:07:13;;;;;;;14.23;9.07;;;;;;;;;;5067876;28;20508;-70
2021/01/02 13:09:40;;;;;;;14.57;9.80;;;;;;;;;;5059794;28;21273;-70
2021/01/02 13:12:07;;;;;;;16.57;10.87;;;;;;;;;;5060436;28;20546;-70
2021/01/02 13:14:34;;;;;;;19.87;10.93;;;;;;;;;;5059959;28;20855;-69
2021/01/02 13:17:01;;;;;;;15.67;10.97;;;;;;;;;;5064571;28;21004;-71
2021/01/02 13:19:28;;;;;;;15.40;10.83;;;;;;;;;;5056872;28;20460;-70
2021/01/02 13:21:55;;;;;;;20.23;11.83;;;;;;;;;;5056237;28;21020;-70
2021/01/02 13:24:23;;;;;;;17.13;10.50;;;;;;;;;;5059530;28;20457;-71
2021/01/02 13:26:50;;;;;;;16.90;11.30;;;;;;;;;;5063090;28;20480;-70
2021/01/02 13:29:17;;;;;;;14.93;10.80;;;;;;;;;;5061656;28;20468;-69
2021/01/02 13:31:45;;;;;;;13.57;9.50;;;;;;;;;;5056921;28;20514;-69
2021/01/02 13:34:11;;;;;;;18.27;11.23;;;;;;;;;;5058613;28;20538;-69
2021/01/02 13:36:39;;;;;;;16.57;11.10;;;;;;;;;;5061556;28;20488;-71
2021/01/02 13:39:07;;;;;;;19.03;12.17;;;;;;;;;;5060639;28;20461;-70
2021/01/02 13:41:34;;;;;;;18.80;11.77;;;;;;;;;;5059781;28;21061;-70
2021/01/02 13:44:01;;;;;;;19.67;11.60;;;;;;;;;;5063095;28;20460;-69
2021/01/02 13:46:27;;;;;;;16.20;11.43;;;;;;;;;;5056708;28;20484;-70
2021/01/02 13:48:54;;;;;;;16.27;10.60;;;;;;;;;;5059953;28;20488;-69
2021/01/02 13:51:20;;;;;;;17.03;11.67;;;;;;;;;;5055079;28;20484;-71
2021/01/02 13:53:47;;;;;;;15.70;11.03;;;;;;;;;;5060259;28;20476;-69
2021/01/02 13:56:14;;;;;;;19.23;10.57;;;;;;;;;;5061503;28;20477;-70
2021/01/02 13:58:42;;;;;;;15.90;10.90;;;;;;;;;;5063195;28;22338;-69
2021/01/02 14:01:09;;;;;;;16.00;11.50;;;;;;;;;;5057906;28;20816;-69
2021/01/02 14:03:37;;;;;;;18.80;11.63;;;;;;;;;;5059883;28;20484;-69
2021/01/02 14:06:04;;;;;;;17.87;12.53;;;;;;;;;;5062719;28;21003;-70
2021/01/02 14:08:31;;;;;;;19.17;12.13;;;;;;;;;;5057025;28;20493;-69
2021/01/02 14:10:57;;;;;;;19.50;12.30;;;;;;;;;;5060588;28;21207;-71
2021/01/02 14:13:24;;;;;;;19.10;12.17;;;;;;;;;;5059929;28;20461;-69
2021/01/02 14:15:51;;;;;;;17.40;9.63;;;;;;;;;;5065298;28;20458;-70
2021/01/02 14:18:18;;;;;;;18.07;11.50;;;;;;;;;;5063989;28;20557;-69
2021/01/02 14:20:45;;;;;;;16.37;11.17;;;;;;;;;;5063532;28;20461;-71
2021/01/02 14:23:11;;;;;;;23.60;13.60;;;;;;;;;;5068772;28;20461;-70
2021/01/02 14:25:38;;;;;;;19.13;12.43;;;;;;;;;;5060968;28;20458;-70
2021/01/02 14:28:04;;;;;;;19.90;12.60;;;;;;;;;;5064762;28;20977;-69
2021/01/02 14:30:31;;;;;;;21.03;14.07;;;;;;;;;;5058535;28;20466;-69
2021/01/02 14:32:58;;;;;;;20.50;13.80;;;;;;;;;;5059201;28;20468;-70
2021/01/02 14:35:25;;;;;;;21.53;13.67;;;;;;;;;;5056675;28;20837;-70
2021/01/02 14:37:52;;;;;;;17.13;12.53;;;;;;;;;;5059054;28;20494;-70
2021/01/02 14:40:18;;;;;;;22.17;14.60;;;;;;;;;;5063340;28;20809;-69